Time;durP1;ratioP1;P1;durP2;ratioP2;P2;SDS_P1;SDS_P2;PMS_P1;PMS_P2;Temp;Humidity;BMP_temperature;BMP_pressure;BME280_temperature;BME280_humidity;BME280_pressure;Samples;Min_cycle;Max_cycle;Signal;HPM_P1;HPM_P2
2023/07/27 00:00:06;;;;;;;9.43;3.70;;;17.20;74.10;;;;;;5101278;28;20461;-79
2023/07/27 00:02:36;;;;;;;6.43;3.70;;;17.20;74.10;;;;;;5082968;28;20485;-79
2023/07/27 00:05:05;;;;;;;7.10;3.70;;;17.20;74.20;;;;;;5080754;28;20518;-79
2023/07/27 00:07:33;;;;;;;8.00;4.37;;;17.20;74.00;;;;;;5083836;28;20999;-78
2023/07/27 00:10:02;;;;;;;7.17;3.50;;;17.10;74.10;;;;;;5094820;28;20454;-79
2023/07/27 00:12:30;;;;;;;6.23;3.73;;;17.20;74.00;;;;;;5084586;28;20485;-79
2023/07/27 00:14:58;;;;;;;8.13;3.90;;;17.20;74.10;;;;;;5084416;28;20461;-78
2023/07/27 00:17:26;;;;;;;6.17;3.53;;;17.10;73.90;;;;;;5086619;28;20548;-78
2023/07/27 00:19:55;;;;;;;6.93;3.77;;;17.10;73.90;;;;;;5085654;28;20462;-78
2023/07/27 00:22:24;;;;;;;7.40;4.00;;;17.10;73.90;;;;;;5087698;28;20459;-79
2023/07/27 00:24:53;;;;;;;6.90;3.20;;;17.00;74.10;;;;;;5087491;28;20498;-81
2023/07/27 00:27:22;;;;;;;6.13;3.30;;;17.00;74.20;;;;;;5083589;28;20456;-80
2023/07/27 00:29:50;;;;;;;7.07;3.97;;;17.10;74.20;;;;;;5081354;28;20459;-80
2023/07/27 00:32:18;;;;;;;7.93;4.23;;;17.10;74.20;;;;;;5086384;28;21089;-80
2023/07/27 00:34:47;;;;;;;8.67;4.40;;;17.10;74.20;;;;;;5084067;28;20547;-80
2023/07/27 00:37:15;;;;;;;6.03;3.40;;;17.10;74.30;;;;;;5086859;28;20481;-79
2023/07/27 00:39:44;;;;;;;7.67;4.17;;;17.10;74.30;;;;;;5087603;28;20455;-80
2023/07/27 00:42:12;;;;;;;7.23;4.03;;;17.10;74.30;;;;;;5083601;28;20463;-78
2023/07/27 00:44:41;;;;;;;6.83;3.70;;;17.10;74.30;;;;;;5081198;28;20955;-79
2023/07/27 00:47:09;;;;;;;8.33;3.77;;;17.10;74.30;;;;;;5086043;28;20979;-79
2023/07/27 00:49:37;;;;;;;6.70;3.50;;;17.10;74.10;;;;;;5084917;28;20987;-80
2023/07/27 00:52:07;;;;;;;8.67;4.20;;;17.10;73.90;;;;;;5085598;28;20461;-79
2023/07/27 00:54:36;;;;;;;11.23;4.50;;;17.10;73.80;;;;;;5085754;28;21393;-79
2023/07/27 00:57:06;;;;;;;8.23;4.90;;;17.10;73.80;;;;;;5084375;28;20449;-80
2023/07/27 00:59:36;;;;;;;8.27;3.73;;;17.00;73.80;;;;;;5093283;28;20548;-78
2023/07/27 01:02:05;;;;;;;6.90;4.20;;;17.00;73.80;;;;;;5082819;28;20488;-78
2023/07/27 01:04:34;;;;;;;6.90;3.70;;;17.00;73.70;;;;;;5087609;28;20510;-79
2023/07/27 01:07:02;;;;;;;6.50;3.63;;;16.90;73.80;;;;;;5085390;28;20468;-77
2023/07/27 01:09:32;;;;;;;5.80;3.30;;;16.90;73.80;;;;;;5089157;28;20486;-80
2023/07/27 01:12:08;;;;;;;7.33;3.90;;;16.90;73.90;;;;;;5100293;28;20496;-79
2023/07/27 01:14:53;;;;;;;7.87;4.00;;;16.80;73.90;;;;;;5089022;28;20456;-79
2023/07/27 01:17:27;;;;;;;10.60;3.90;;;16.80;73.90;;;;;;5085172;28;20556;-79
2023/07/27 01:20:10;;;;;;;9.53;4.50;;;16.80;74.00;;;;;;5081680;28;20467;-78
2023/07/27 01:22:54;;;;;;;7.50;4.33;;;16.80;74.10;;;;;;5089923;28;20558;-80
2023/07/27 01:25:44;;;;;;;8.17;4.40;;;16.80;74.20;;;;;;5086749;28;20496;-79
2023/07/27 01:28:27;;;;;;;8.60;4.23;;;16.80;74.20;;;;;;5087225;28;20445;-80
2023/07/27 01:31:01;;;;;;;7.27;3.80;;;16.80;74.30;;;;;;5087497;28;20465;-80
2023/07/27 01:33:38;;;;;;;10.00;4.33;;;16.90;74.30;;;;;;5084158;28;20481;-79
2023/07/27 01:36:11;;;;;;;7.70;3.83;;;16.90;74.40;;;;;;5085833;28;20470;-80
2023/07/27 01:38:44;;;;;;;9.00;4.27;;;16.90;74.40;;;;;;5088920;28;20476;-79
2023/07/27 01:41:14;;;;;;;7.30;4.13;;;17.00;74.40;;;;;;5091280;28;20452;-80
2023/07/27 01:43:43;;;;;;;9.93;3.97;;;17.00;74.40;;;;;;5086592;28;20457;-81
2023/07/27 01:46:13;;;;;;;8.03;3.77;;;17.00;74.40;;;;;;5084638;28;20467;-79
2023/07/27 01:48:43;;;;;;;9.83;4.20;;;17.00;74.40;;;;;;5088134;28;21020;-78
2023/07/27 01:51:13;;;;;;;8.80;4.23;;;17.10;74.40;;;;;;5089871;28;20457;-80
2023/07/27 01:53:43;;;;;;;8.03;4.40;;;17.10;74.40;;;;;;5087342;28;21094;-80
2023/07/27 01:56:12;;;;;;;8.10;3.80;;;17.10;74.50;;;;;;5094054;28;20560;-79
2023/07/27 01:58:41;;;;;;;8.00;3.90;;;17.10;74.50;;;;;;5089347;28;20868;-81
2023/07/27 02:01:09;;;;;;;8.17;4.17;;;17.10;74.40;;;;;;5088341;28;20485;-78
2023/07/27 02:03:39;;;;;;;11.50;4.23;;;17.10;74.30;;;;;;5103292;28;20881;-79
2023/07/27 02:06:07;;;;;;;7.13;3.63;;;17.10;74.30;;;;;;5087028;28;20462;-80
2023/07/27 02:08:36;;;;;;;9.50;3.90;;;17.10;74.40;;;;;;5090758;28;20821;-80
2023/07/27 02:11:05;;;;;;;8.10;4.40;;;17.10;74.40;;;;;;5087699;28;20493;-79
2023/07/27 02:13:39;;;;;;;8.43;4.50;;;17.10;74.40;;;;;;5087224;28;20830;-79
2023/07/27 02:16:25;;;;;;;8.10;4.27;;;17.00;74.40;;;;;;5091778;28;20546;-78
2023/07/27 02:18:58;;;;;;;8.63;4.30;;;17.10;74.60;;;;;;5087104;28;20459;-79
2023/07/27 02:21:28;;;;;;;8.33;4.03;;;17.10;74.60;;;;;;5089797;28;20456;-79
2023/07/27 02:23:58;;;;;;;9.50;4.90;;;17.10;74.60;;;;;;5085836;28;20485;-78
2023/07/27 02:26:27;;;;;;;11.00;4.70;;;17.10;74.60;;;;;;5081591;28;20454;-78
2023/07/27 02:28:56;;;;;;;10.03;4.37;;;17.10;74.70;;;;;;5085482;28;21341;-78
2023/07/27 02:31:26;;;;;;;12.43;4.07;;;17.10;74.70;;;;;;5085270;28;20943;-79
2023/07/27 02:33:55;;;;;;;9.27;4.03;;;17.10;74.60;;;;;;5084612;28;20465;-79
2023/07/27 02:36:23;;;;;;;6.73;3.90;;;17.10;74.70;;;;;;5082149;28;20998;-79
2023/07/27 02:38:51;;;;;;;7.40;3.50;;;17.10;74.70;;;;;;5103551;28;20500;-78
2023/07/27 02:41:19;;;;;;;11.30;4.47;;;17.10;74.70;;;;;;5087155;28;20593;-78
2023/07/27 02:43:50;;;;;;;9.83;4.00;;;17.10;74.70;;;;;;5085378;28;20492;-79
2023/07/27 02:46:20;;;;;;;6.90;3.90;;;17.20;74.60;;;;;;5087866;28;20461;-79
2023/07/27 02:48:48;;;;;;;8.60;4.20;;;17.20;74.60;;;;;;5088782;28;20464;-79
2023/07/27 02:51:17;;;;;;;9.10;4.40;;;17.20;74.60;;;;;;5087410;28;20503;-79
2023/07/27 02:53:45;;;;;;;9.03;4.37;;;17.20;74.60;;;;;;5089021;28;20952;-79
2023/07/27 02:56:21;;;;;;;8.27;4.30;;;17.20;74.60;;;;;;5089221;28;20466;-78
2023/07/27 02:58:51;;;;;;;7.27;4.20;;;17.20;74.60;;;;;;5089304;28;20600;-79
2023/07/27 03:01:21;;;;;;;5.70;3.60;;;17.20;74.60;;;;;;5088896;28;20476;-80
2023/07/27 03:03:56;;;;;;;8.20;4.40;;;17.20;74.50;;;;;;5087992;28;20449;-79
2023/07/27 03:06:25;;;;;;;8.03;3.97;;;17.20;74.60;;;;;;5095190;28;20463;-81
2023/07/27 03:08:57;;;;;;;7.57;3.90;;;17.20;74.60;;;;;;5095598;28;20508;-78
2023/07/27 03:11:25;;;;;;;9.27;4.00;;;17.20;74.60;;;;;;5087707;28;20446;-79
2023/07/27 03:13:53;;;;;;;9.47;4.17;;;17.30;74.60;;;;;;5085319;28;20548;-79
2023/07/27 03:16:21;;;;;;;8.50;3.97;;;17.30;74.60;;;;;;5083617;28;20865;-80
2023/07/27 03:18:51;;;;;;;6.87;4.37;;;17.30;74.50;;;;;;5086771;28;20468;-78
2023/07/27 03:21:18;;;;;;;7.37;4.10;;;17.30;74.50;;;;;;5089759;28;21005;-80
2023/07/27 03:23:50;;;;;;;7.77;4.33;;;17.30;74.50;;;;;;5104523;28;20456;-78
2023/07/27 03:26:18;;;;;;;9.30;4.30;;;17.30;74.60;;;;;;5088381;28;20456;-78
2023/07/27 03:28:46;;;;;;;6.80;3.90;;;17.30;74.60;;;;;;5086314;28;20452;-78
2023/07/27 03:31:19;;;;;;;6.63;3.87;;;17.30;74.50;;;;;;5088372;28;20493;-78
2023/07/27 03:33:47;;;;;;;7.63;3.00;;;17.30;74.50;;;;;;5084313;28;20461;-80
2023/07/27 03:36:17;;;;;;;8.97;3.73;;;17.30;74.50;;;;;;5079381;28;20453;-78
2023/07/27 03:38:45;;;;;;;6.70;3.57;;;17.40;74.40;;;;;;5081628;28;21036;-79
2023/07/27 03:41:15;;;;;;;7.63;3.97;;;17.30;74.30;;;;;;5088369;28;20506;-78
2023/07/27 03:43:43;;;;;;;8.20;4.00;;;17.40;74.30;;;;;;5083120;28;20470;-78
2023/07/27 03:46:11;;;;;;;8.83;3.67;;;17.40;74.30;;;;;;5081590;28;20538;-78
2023/07/27 03:48:39;;;;;;;7.90;3.90;;;17.40;74.30;;;;;;5090108;28;20456;-79
2023/07/27 03:51:14;;;;;;;8.20;4.00;;;17.40;74.20;;;;;;5091000;28;20457;-78
2023/07/27 03:53:42;;;;;;;9.77;3.90;;;17.40;74.20;;;;;;5079745;28;20463;-78
2023/07/27 03:56:11;;;;;;;10.43;3.70;;;17.40;74.20;;;;;;5086697;28;20481;-78
2023/07/27 03:58:42;;;;;;;7.63;4.10;;;17.40;74.10;;;;;;5091333;28;20493;-79
2023/07/27 04:01:12;;;;;;;7.80;3.80;;;17.40;74.10;;;;;;5082393;28;20474;-79
2023/07/27 04:03:39;;;;;;;8.13;4.10;;;17.40;74.10;;;;;;5087315;28;20557;-78
2023/07/27 04:06:07;;;;;;;7.60;4.20;;;17.40;74.10;;;;;;5103832;28;20462;-78
2023/07/27 04:08:35;;;;;;;9.30;4.30;;;17.40;74.10;;;;;;5077510;28;20922;-78
2023/07/27 04:11:04;;;;;;;10.50;4.27;;;17.50;74.00;;;;;;5100870;28;20490;-77
2023/07/27 04:13:32;;;;;;;7.40;3.97;;;17.50;74.00;;;;;;5083457;28;20563;-78
2023/07/27 04:16:01;;;;;;;7.80;4.60;;;17.50;74.00;;;;;;5088089;28;20859;-79
2023/07/27 04:18:30;;;;;;;6.33;4.07;;;17.50;74.00;;;;;;5086199;28;20536;-78
2023/07/27 04:20:58;;;;;;;7.00;3.87;;;17.50;73.90;;;;;;5087869;28;20473;-77
2023/07/27 04:23:27;;;;;;;9.00;3.80;;;17.50;74.00;;;;;;5081989;28;20473;-78
2023/07/27 04:25:55;;;;;;;7.57;4.30;;;17.50;74.00;;;;;;5079092;28;20469;-79
2023/07/27 04:28:23;;;;;;;8.13;4.00;;;17.40;74.00;;;;;;5086590;28;20500;-80
2023/07/27 04:30:51;;;;;;;7.37;3.70;;;17.40;74.00;;;;;;5082081;28;20528;-78
2023/07/27 04:33:21;;;;;;;10.70;5.03;;;17.50;74.00;;;;;;5095980;28;20467;-77
2023/07/27 04:35:49;;;;;;;10.77;4.10;;;17.40;74.00;;;;;;5084272;28;20490;-80
2023/07/27 04:38:17;;;;;;;12.13;3.63;;;17.50;74.10;;;;;;5081247;28;20482;-78
2023/07/27 04:40:45;;;;;;;9.07;4.17;;;17.50;74.10;;;;;;5082701;28;20476;-79
2023/07/27 04:43:14;;;;;;;7.60;3.90;;;17.50;74.10;;;;;;5086271;28;20465;-77
2023/07/27 04:45:42;;;;;;;8.10;4.00;;;17.50;74.10;;;;;;5077987;28;20468;-78
2023/07/27 04:48:10;;;;;;;8.00;3.57;;;17.50;74.10;;;;;;5083160;28;20594;-78
2023/07/27 04:50:40;;;;;;;9.13;4.70;;;17.50;74.10;;;;;;5083160;28;20489;-79
2023/07/27 04:53:08;;;;;;;8.93;4.30;;;17.50;74.10;;;;;;5082847;28;21145;-79
2023/07/27 04:55:36;;;;;;;6.57;3.10;;;17.50;74.20;;;;;;5103088;28;20541;-78
2023/07/27 04:58:04;;;;;;;17.33;4.60;;;17.50;74.20;;;;;;5093914;28;20482;-79
2023/07/27 05:00:32;;;;;;;8.17;3.93;;;17.60;74.30;;;;;;5103678;28;20470;-77
2023/07/27 05:03:00;;;;;;;7.03;3.50;;;17.60;74.30;;;;;;5092040;28;21391;-78
2023/07/27 05:05:28;;;;;;;8.90;3.93;;;17.60;74.30;;;;;;5088495;28;20560;-80
2023/07/27 05:07:57;;;;;;;10.70;4.40;;;17.70;74.20;;;;;;5093934;28;20754;-78
2023/07/27 05:10:25;;;;;;;7.70;3.60;;;17.70;74.30;;;;;;5087362;28;20456;-78
2023/07/27 05:12:55;;;;;;;10.63;3.30;;;17.70;74.20;;;;;;5083126;28;20461;-79
2023/07/27 05:15:23;;;;;;;6.77;3.70;;;17.70;74.20;;;;;;5085309;28;20460;-76
2023/07/27 05:17:51;;;;;;;7.67;3.47;;;17.70;74.20;;;;;;5084068;28;20560;-77
2023/07/27 05:20:19;;;;;;;9.10;3.20;;;17.80;74.20;;;;;;5091645;28;20514;-78
2023/07/27 05:22:47;;;;;;;8.67;3.53;;;17.80;74.20;;;;;;5089648;28;20461;-79
2023/07/27 05:25:17;;;;;;;8.47;3.90;;;17.80;74.20;;;;;;5089783;28;22308;-80
2023/07/27 05:27:45;;;;;;;8.67;4.37;;;17.80;74.20;;;;;;5085368;28;20556;-79
2023/07/27 05:30:13;;;;;;;6.90;3.33;;;17.80;74.20;;;;;;5089899;28;20445;-76
2023/07/27 05:32:41;;;;;;;8.73;3.70;;;17.80;74.30;;;;;;5090911;28;20453;-76
2023/07/27 05:35:09;;;;;;;8.03;3.73;;;17.80;74.30;;;;;;5089168;28;20973;-78
2023/07/27 05:37:40;;;;;;;8.10;4.03;;;17.80;74.30;;;;;;5088042;28;20460;-78
2023/07/27 05:40:09;;;;;;;6.00;3.70;;;17.80;74.30;;;;;;5082506;28;20572;-79
2023/07/27 05:42:39;;;;;;;8.30;3.60;;;17.80;74.30;;;;;;5088056;28;20458;-79
2023/07/27 05:45:09;;;;;;;7.50;4.10;;;17.80;74.40;;;;;;5086032;28;20468;-78
2023/07/27 05:47:37;;;;;;;8.17;3.97;;;17.80;74.60;;;;;;5091734;28;20532;-78
2023/07/27 05:50:06;;;;;;;7.33;3.43;;;17.80;74.40;;;;;;5087152;28;20457;-78
2023/07/27 05:52:34;;;;;;;7.20;3.50;;;17.80;74.40;;;;;;5090063;28;21275;-79
2023/07/27 05:55:03;;;;;;;8.33;3.80;;;17.90;74.50;;;;;;5087927;28;21101;-79
2023/07/27 05:57:33;;;;;;;6.20;3.60;;;17.90;74.50;;;;;;5077659;28;22317;-76
2023/07/27 06:00:06;;;;;;;8.47;3.53;;;18.00;74.50;;;;;;5085084;28;20481;-79
2023/07/27 06:02:35;;;;;;;7.77;4.10;;;18.00;74.50;;;;;;5087564;28;20574;-78
2023/07/27 06:05:04;;;;;;;6.10;3.30;;;18.00;74.50;;;;;;5089517;28;20493;-78
2023/07/27 06:07:32;;;;;;;10.10;3.77;;;18.00;74.50;;;;;;5087664;28;20454;-79
2023/07/27 06:10:00;;;;;;;8.60;3.23;;;18.00;74.50;;;;;;5087915;28;20458;-79
2023/07/27 06:12:28;;;;;;;5.83;3.10;;;18.10;74.50;;;;;;5085431;28;20456;-78
2023/07/27 06:14:57;;;;;;;7.53;3.90;;;18.20;74.40;;;;;;5085295;28;20512;-78
2023/07/27 06:17:27;;;;;;;6.30;3.20;;;18.20;74.30;;;;;;5087260;28;20507;-79
2023/07/27 06:19:55;;;;;;;9.10;3.30;;;18.20;74.10;;;;;;5090313;28;20455;-81
2023/07/27 06:22:23;;;;;;;5.93;3.10;;;18.20;74.10;;;;;;5087274;28;20446;-80
2023/07/27 06:24:51;;;;;;;9.73;3.37;;;18.30;74.00;;;;;;5087506;28;20983;-81
2023/07/27 06:27:19;;;;;;;6.70;3.43;;;18.30;74.00;;;;;;5091072;28;20480;-81
2023/07/27 06:29:47;;;;;;;8.50;3.63;;;18.30;74.00;;;;;;5103275;28;20463;-82
2023/07/27 06:32:15;;;;;;;6.30;3.27;;;18.30;73.90;;;;;;5090427;28;21031;-81
2023/07/27 06:34:45;;;;;;;6.80;3.10;;;18.30;73.90;;;;;;5090043;28;21029;-81
2023/07/27 06:37:13;;;;;;;6.03;3.40;;;18.30;73.80;;;;;;5089426;28;20468;-80
2023/07/27 06:39:41;;;;;;;6.80;3.30;;;18.40;73.80;;;;;;5091456;28;20543;-81
2023/07/27 06:42:09;;;;;;;7.43;3.30;;;18.40;73.70;;;;;;5087596;28;20487;-81
2023/07/27 06:44:37;;;;;;;7.27;3.47;;;18.40;73.70;;;;;;5088160;28;20446;-80
2023/07/27 06:47:06;;;;;;;6.83;3.40;;;18.40;73.60;;;;;;5088566;28;20447;-80
2023/07/27 06:49:34;;;;;;;6.33;3.77;;;18.40;73.60;;;;;;5087097;28;20470;-80
2023/07/27 06:52:04;;;;;;;8.27;3.37;;;18.50;73.50;;;;;;5087218;28;20453;-81
2023/07/27 06:54:32;;;;;;;6.30;2.93;;;18.50;73.40;;;;;;5087552;28;20455;-80
2023/07/27 06:57:00;;;;;;;9.43;3.40;;;18.50;73.30;;;;;;5087351;28;20564;-80
2023/07/27 06:59:28;;;;;;;6.17;3.13;;;18.50;73.30;;;;;;5089691;28;20455;-81
2023/07/27 07:01:57;;;;;;;6.57;3.20;;;18.50;73.30;;;;;;5087549;28;20970;-81
2023/07/27 07:04:25;;;;;;;10.00;3.70;;;18.50;73.20;;;;;;5091004;28;20451;-79
2023/07/27 07:06:53;;;;;;;8.43;3.07;;;18.50;73.20;;;;;;5086370;28;20455;-80
2023/07/27 07:09:22;;;;;;;6.93;3.50;;;18.60;73.20;;;;;;5087916;28;20452;-80
2023/07/27 07:11:50;;;;;;;8.00;2.93;;;18.60;73.20;;;;;;5090832;28;21461;-82
2023/07/27 07:14:18;;;;;;;7.70;3.00;;;18.60;73.20;;;;;;5084894;28;20467;-81
2023/07/27 07:16:46;;;;;;;7.07;3.17;;;18.70;73.20;;;;;;5083998;28;21026;-81
2023/07/27 07:19:14;;;;;;;7.30;3.33;;;18.70;73.10;;;;;;5082212;28;20535;-80
2023/07/27 07:21:42;;;;;;;6.13;3.00;;;18.70;73.20;;;;;;5090951;28;21030;-81
2023/07/27 07:24:10;;;;;;;8.70;3.27;;;18.80;73.20;;;;;;5088512;28;20452;-80
2023/07/27 07:26:40;;;;;;;8.30;3.57;;;18.80;73.20;;;;;;5080267;28;20535;-81
2023/07/27 07:29:09;;;;;;;6.53;3.40;;;18.80;73.30;;;;;;5087126;28;20444;-80
2023/07/27 07:31:37;;;;;;;7.20;3.50;;;18.80;73.30;;;;;;5088923;28;20537;-81
2023/07/27 07:34:11;;;;;;;5.70;3.10;;;18.80;73.20;;;;;;5086246;28;20862;-80
2023/07/27 07:36:39;;;;;;;6.00;2.87;;;18.80;73.30;;;;;;5086184;28;21030;-80
2023/07/27 07:39:07;;;;;;;7.30;3.47;;;18.80;73.40;;;;;;5086568;28;20444;-81
2023/07/27 07:41:35;;;;;;;8.00;3.37;;;18.80;73.50;;;;;;5085905;28;20477;-81
2023/07/27 07:44:05;;;;;;;7.73;3.20;;;18.80;73.50;;;;;;5088687;28;20457;-80
2023/07/27 07:46:33;;;;;;;6.40;3.23;;;18.90;73.50;;;;;;5088678;28;20476;-81
2023/07/27 07:49:01;;;;;;;6.37;3.43;;;18.90;73.60;;;;;;5084056;28;20442;-82
2023/07/27 07:51:29;;;;;;;6.23;2.90;;;18.90;73.70;;;;;;5087881;28;20975;-81
2023/07/27 07:53:57;;;;;;;7.40;3.87;;;18.80;73.90;;;;;;5082717;28;20461;-79
2023/07/27 07:56:25;;;;;;;11.87;3.20;;;18.80;74.00;;;;;;5087906;28;20944;-81
2023/07/27 07:58:53;;;;;;;5.67;3.47;;;18.80;74.10;;;;;;5088791;28;20810;-80
2023/07/27 08:01:22;;;;;;;7.70;3.50;;;18.90;74.20;;;;;;5087730;28;20482;-79
2023/07/27 08:03:50;;;;;;;7.97;3.37;;;18.90;74.20;;;;;;5089566;28;20520;-80
2023/07/27 08:06:18;;;;;;;13.03;3.30;;;18.90;74.20;;;;;;5085388;28;20545;-80
2023/07/27 08:08:47;;;;;;;6.80;3.40;;;18.90;74.30;;;;;;5088838;28;20547;-81
2023/07/27 08:11:15;;;;;;;7.27;3.10;;;18.90;74.30;;;;;;5092379;28;20450;-81
2023/07/27 08:13:43;;;;;;;6.90;3.63;;;18.90;74.40;;;;;;5088097;28;21220;-80
2023/07/27 08:16:11;;;;;;;6.90;3.40;;;18.90;74.50;;;;;;5085514;28;20547;-80
2023/07/27 08:18:40;;;;;;;8.03;3.30;;;18.90;74.60;;;;;;5085023;28;20938;-80
2023/07/27 08:21:09;;;;;;;9.57;3.90;;;18.90;74.70;;;;;;5077320;28;20464;-80
2023/07/27 08:23:37;;;;;;;5.70;3.30;;;18.90;74.70;;;;;;5083192;28;20550;-80
2023/07/27 08:26:09;;;;;;;7.70;3.83;;;18.90;74.70;;;;;;5084221;28;20464;-80
2023/07/27 08:28:37;;;;;;;7.10;3.73;;;18.90;74.90;;;;;;5083795;28;20513;-79
2023/07/27 08:31:06;;;;;;;6.70;3.43;;;18.90;74.90;;;;;;5083872;28;20464;-80
2023/07/27 08:33:56;;;;;;;6.67;3.70;;;18.90;75.00;;;;;;5084506;28;20557;-81
2023/07/27 08:36:24;;;;;;;7.80;3.40;;;19.00;75.00;;;;;;5077076;28;20461;-81
2023/07/27 08:38:52;;;;;;;7.17;3.70;;;19.00;75.10;;;;;;5078270;28;20579;-81
2023/07/27 08:41:20;;;;;;;8.17;3.80;;;19.00;75.10;;;;;;5085068;28;20515;-80
2023/07/27 08:43:50;;;;;;;8.03;3.93;;;18.90;75.10;;;;;;5089696;28;20551;-80
2023/07/27 08:46:20;;;;;;;8.20;3.67;;;18.90;75.20;;;;;;5093938;28;20478;-80
2023/07/27 08:48:50;;;;;;;6.50;3.50;;;18.90;75.30;;;;;;5091324;28;20453;-80
2023/07/27 08:51:19;;;;;;;7.13;3.50;;;18.90;75.50;;;;;;5091839;28;20536;-79
2023/07/27 08:53:50;;;;;;;8.43;4.20;;;18.90;75.40;;;;;;5080991;28;20483;-80
2023/07/27 08:56:19;;;;;;;6.60;3.80;;;18.90;75.60;;;;;;5099561;28;20491;-79
2023/07/27 08:58:47;;;;;;;6.30;3.50;;;18.90;75.70;;;;;;5085906;28;20444;-81
2023/07/27 09:01:16;;;;;;;7.83;3.80;;;18.90;75.70;;;;;;5085921;28;20461;-80
2023/07/27 09:03:44;;;;;;;6.73;3.80;;;18.90;75.80;;;;;;5084762;28;20456;-80
2023/07/27 09:06:13;;;;;;;6.93;3.27;;;18.90;75.80;;;;;;5085298;28;20460;-80
2023/07/27 09:08:42;;;;;;;7.90;3.70;;;18.90;75.90;;;;;;5088877;28;21055;-79
2023/07/27 09:11:12;;;;;;;8.67;4.23;;;18.90;76.00;;;;;;5084226;28;20542;-79
2023/07/27 09:13:42;;;;;;;6.37;3.10;;;19.00;76.00;;;;;;5084087;28;20493;-80
2023/07/27 09:16:09;;;;;;;9.30;3.60;;;18.90;76.10;;;;;;5099784;28;20962;-81
2023/07/27 09:18:38;;;;;;;6.07;3.23;;;18.90;76.20;;;;;;5085080;28;20861;-80
2023/07/27 09:21:08;;;;;;;6.30;3.70;;;18.90;76.30;;;;;;5087170;28;20485;-79
2023/07/27 09:23:37;;;;;;;7.43;4.40;;;18.90;76.40;;;;;;5088283;28;20494;-80
2023/07/27 09:26:06;;;;;;;8.43;4.50;;;18.90;76.50;;;;;;5083623;28;20455;-80
2023/07/27 09:28:34;;;;;;;7.10;4.53;;;18.90;76.60;;;;;;5097795;28;20483;-81
2023/07/27 09:31:03;;;;;;;9.37;4.07;;;18.80;76.70;;;;;;5079156;28;20560;-79
2023/07/27 09:33:32;;;;;;;7.93;4.17;;;18.80;76.80;;;;;;5086452;28;20457;-80
2023/07/27 09:36:01;;;;;;;10.97;4.20;;;18.80;77.00;;;;;;5088180;28;20890;-80
2023/07/27 09:38:30;;;;;;;6.93;3.80;;;18.90;77.10;;;;;;5084269;28;20459;-79
2023/07/27 09:40:58;;;;;;;8.10;4.80;;;18.80;77.20;;;;;;5085157;28;20545;-80
2023/07/27 09:43:27;;;;;;;7.93;4.40;;;18.80;77.30;;;;;;5085005;28;20496;-80
2023/07/27 09:45:59;;;;;;;6.37;4.00;;;18.80;77.50;;;;;;5089204;28;20894;-80
2023/07/27 09:48:28;;;;;;;7.93;4.40;;;18.80;77.80;;;;;;5087646;28;20452;-79
2023/07/27 09:50:59;;;;;;;7.33;4.20;;;18.80;77.80;;;;;;5087482;28;20462;-80
2023/07/27 09:53:29;;;;;;;8.67;4.37;;;18.80;78.00;;;;;;5084948;28;20678;-80
2023/07/27 09:55:59;;;;;;;8.83;4.27;;;18.80;78.20;;;;;;5089406;28;20486;-81
2023/07/27 09:58:29;;;;;;;7.33;4.13;;;18.80;78.40;;;;;;5092481;28;20455;-80
2023/07/27 10:00:58;;;;;;;9.37;4.73;;;18.80;78.50;;;;;;5086730;28;20476;-79
2023/07/27 10:03:26;;;;;;;8.90;3.80;;;18.80;78.60;;;;;;5089898;28;21062;-80
2023/07/27 10:05:57;;;;;;;8.27;4.40;;;18.80;78.70;;;;;;5083154;28;20450;-81
2023/07/27 10:08:26;;;;;;;6.77;3.70;;;18.80;78.80;;;;;;5087048;28;20464;-80
2023/07/27 10:11:02;;;;;;;7.37;4.20;;;18.80;78.90;;;;;;5090321;28;20521;-80
2023/07/27 10:13:38;;;;;;;14.37;4.30;;;18.70;79.00;;;;;;5086235;28;20462;-80
2023/07/27 10:16:10;;;;;;;8.03;3.30;;;18.70;79.30;;;;;;5083261;28;20957;-80
2023/07/27 10:18:45;;;;;;;7.20;4.20;;;18.60;79.40;;;;;;5081495;28;20461;-80
2023/07/27 10:21:27;;;;;;;6.40;3.80;;;18.60;79.60;;;;;;5089248;28;20464;-79
2023/07/27 10:24:00;;;;;;;7.40;3.60;;;18.60;79.70;;;;;;5100403;28;20490;-79
2023/07/27 10:26:49;;;;;;;8.57;3.70;;;18.50;79.80;;;;;;5085247;28;20529;-80
2023/07/27 10:29:21;;;;;;;6.80;3.50;;;18.50;79.90;;;;;;5085377;28;20449;-79
2023/07/27 10:32:01;;;;;;;5.93;3.70;;;18.50;80.00;;;;;;5087291;28;20479;-78
2023/07/27 10:34:30;;;;;;;10.00;3.80;;;18.50;80.10;;;;;;5090733;28;20458;-80
2023/07/27 10:37:09;;;;;;;7.63;3.33;;;18.50;80.10;;;;;;5082332;28;20877;-79
2023/07/27 10:39:47;;;;;;;5.87;3.43;;;18.60;79.90;;;;;;5079994;28;20451;-80
2023/07/27 10:42:17;;;;;;;6.80;3.77;;;18.60;80.00;;;;;;5090537;28;20442;-80
2023/07/27 10:44:48;;;;;;;8.90;3.60;;;18.60;79.80;;;;;;5081886;28;20801;-80
2023/07/27 10:47:20;;;;;;;8.37;4.13;;;18.60;79.80;;;;;;5087804;28;20451;-79
2023/07/27 10:49:49;;;;;;;9.03;3.70;;;18.60;79.90;;;;;;5088775;28;20467;-80
2023/07/27 10:52:19;;;;;;;8.73;3.37;;;18.60;79.90;;;;;;5089045;28;20520;-78
2023/07/27 10:54:49;;;;;;;7.83;4.10;;;18.60;80.00;;;;;;5089473;28;20482;-79
2023/07/27 10:57:18;;;;;;;12.03;3.30;;;18.60;80.00;;;;;;5086282;28;20543;-79
2023/07/27 10:59:49;;;;;;;7.63;3.37;;;18.60;80.00;;;;;;5085792;28;20454;-79
2023/07/27 11:02:20;;;;;;;7.93;3.60;;;18.60;80.10;;;;;;5086764;28;20504;-80
2023/07/27 11:04:49;;;;;;;7.53;3.50;;;18.60;80.10;;;;;;5087059;28;20450;-79
2023/07/27 11:07:26;;;;;;;8.80;3.07;;;18.70;80.10;;;;;;5102748;28;20462;-79
2023/07/27 11:09:55;;;;;;;10.50;4.37;;;18.70;80.20;;;;;;5083867;28;20760;-80
2023/07/27 11:12:23;;;;;;;5.70;3.30;;;18.80;80.10;;;;;;5084946;28;20463;-80
2023/07/27 11:14:53;;;;;;;6.07;3.23;;;18.80;80.20;;;;;;5084872;28;20479;-81
2023/07/27 11:17:22;;;;;;;6.70;3.10;;;18.80;80.30;;;;;;5084652;28;20483;-78
2023/07/27 11:19:52;;;;;;;6.77;3.53;;;18.80;80.30;;;;;;5080298;28;20464;-78
2023/07/27 11:22:22;;;;;;;6.17;3.60;;;18.80;80.40;;;;;;5090518;28;20459;-80
2023/07/27 11:24:50;;;;;;;7.77;4.17;;;18.80;80.50;;;;;;5089288;28;20484;-79
2023/07/27 11:27:19;;;;;;;9.60;3.67;;;18.80;80.50;;;;;;5088685;28;20448;-80
2023/07/27 11:29:49;;;;;;;7.33;3.87;;;18.90;80.60;;;;;;5083972;28;20448;-79
2023/07/27 11:32:26;;;;;;;7.60;3.40;;;18.90;80.60;;;;;;5087866;28;21039;-79
2023/07/27 11:34:55;;;;;;;8.00;3.87;;;19.00;80.70;;;;;;5085424;28;20964;-80
2023/07/27 11:37:26;;;;;;;6.70;3.70;;;19.00;80.60;;;;;;5084846;28;20537;-78
2023/07/27 11:39:55;;;;;;;11.33;4.67;;;19.10;80.60;;;;;;5090365;28;20809;-79
2023/07/27 11:42:28;;;;;;;9.27;4.23;;;19.10;80.60;;;;;;5077827;28;20889;-81
2023/07/27 11:44:56;;;;;;;7.77;4.20;;;19.10;80.70;;;;;;5085028;28;20522;-80
2023/07/27 11:47:26;;;;;;;7.63;3.83;;;19.10;80.80;;;;;;5087334;28;20482;-81
2023/07/27 11:49:55;;;;;;;7.80;4.60;;;19.10;80.90;;;;;;5086884;28;20459;-81
2023/07/27 11:52:25;;;;;;;7.33;3.77;;;19.10;80.90;;;;;;5084300;28;20458;-81
2023/07/27 11:54:54;;;;;;;8.00;4.10;;;19.00;81.00;;;;;;5088774;28;20480;-80
2023/07/27 11:57:26;;;;;;;8.80;4.50;;;19.00;81.10;;;;;;5096481;28;20448;-79
2023/07/27 12:00:02;;;;;;;7.40;4.50;;;19.00;81.10;;;;;;5088796;28;20609;-80
2023/07/27 12:02:40;;;;;;;8.77;4.20;;;19.00;81.20;;;;;;5074489;28;21024;-80
2023/07/27 12:05:13;;;;;;;9.43;4.90;;;19.00;81.20;;;;;;5070751;28;20512;-79
2023/07/27 12:07:42;;;;;;;8.47;4.70;;;19.00;81.40;;;;;;5065970;28;20556;-80
2023/07/27 12:10:14;;;;;;;8.40;4.63;;;19.00;81.40;;;;;;5080260;28;20436;-80
2023/07/27 12:12:51;;;;;;;8.77;5.37;;;19.00;81.40;;;;;;5064271;28;20548;-80
2023/07/27 12:15:27;;;;;;;8.70;5.67;;;19.10;81.40;;;;;;5069247;28;20905;-79
2023/07/27 12:17:58;;;;;;;10.67;5.13;;;19.10;81.40;;;;;;5068909;28;20458;-80
2023/07/27 12:20:27;;;;;;;8.90;5.80;;;19.10;81.30;;;;;;5062159;28;21043;-78
2023/07/27 12:23:16;;;;;;;11.73;6.10;;;19.20;81.30;;;;;;5053711;28;21002;-81
2023/07/27 12:25:47;;;;;;;10.30;5.27;;;19.20;81.30;;;;;;5056610;28;20483;-79
2023/07/27 12:28:35;;;;;;;17.90;5.83;;;19.20;81.40;;;;;;5060717;28;20641;-79
2023/07/27 12:31:09;;;;;;;11.27;5.87;;;19.20;81.40;;;;;;5071103;28;20476;-79
2023/07/27 12:33:41;;;;;;;9.40;5.90;;;19.20;81.50;;;;;;5085579;28;20583;-79
2023/07/27 12:36:10;;;;;;;8.83;5.17;;;19.20;81.70;;;;;;5086847;28;20521;-79
2023/07/27 12:38:38;;;;;;;9.17;6.10;;;19.20;81.70;;;;;;5089056;28;20452;-79
2023/07/27 12:41:09;;;;;;;9.43;6.73;;;19.30;81.60;;;;;;5081287;28;20456;-79
2023/07/27 12:43:37;;;;;;;11.13;6.33;;;19.30;81.70;;;;;;5087553;28;20563;-78
2023/07/27 12:46:06;;;;;;;10.10;5.53;;;19.30;81.70;;;;;;5083205;28;20448;-79
2023/07/27 12:48:34;;;;;;;10.77;6.10;;;19.40;81.70;;;;;;5088661;28;20458;-80
2023/07/27 12:51:05;;;;;;;8.63;5.43;;;19.40;81.80;;;;;;5086791;28;20481;-81
2023/07/27 12:53:33;;;;;;;8.40;5.20;;;19.40;81.90;;;;;;5083615;28;20453;-80
2023/07/27 12:56:03;;;;;;;9.47;5.60;;;19.40;81.90;;;;;;5080940;28;20509;-79
2023/07/27 12:58:31;;;;;;;9.80;5.00;;;19.50;81.90;;;;;;5099855;28;21030;-82